ホセ・マルティ国際空港の過去48時間の天気

ホセ・マルティ国際空港 (Aeropuerto Jose Marti, Rancho-Boyeros, Habana)

現在時刻: 10/4 10:13 CDT (10/4 14:13 UTC) 以下の時間は現地時間です。

過去48時間のMETAR気象情報
時間 風向 風速(m/s) 視程 気温(℃) 湿度(%) 気圧(hPa) 天気現象
4 09:50 南西 2 10km以上 25 78 1015
4 08:50 不定 1 10km以上 20 88 1015
4 07:50 南西 1 10km以上 16 100 1015
4 06:50 不定 1 9000m 16 94 1014
4 05:50 不定 1 9000m 16 100 1013
4 04:50 不定 1 9000m 16 100 1013
4 03:50 不定 1 9000m 17 94 1014
4 02:50 西南西 1 9000m 17 94 1014
4 01:50 南南西 1 9000m 17 100 1015
4 00:50 1 9000m 18 94 1015
3 23:50 南西 1 9000m 18 94 1015
3 22:50 南南西 1 9000m 19 94 1015
3 21:50 不定 1 9000m 19 94 1015
3 20:50 不定 1 9000m 21 83 1015
3 19:50 北北西 2 9000m 25 61 1014
3 18:50 3 9000m 26 58 1013
3 17:50 北北西 4 9000m 27 54 1013
3 16:50 北北西 5 9000m 28 51 1013
3 15:50 4 9000m 29 52 1014
MUHA 041350Z 22004KT 200V280 9999 FEW030 25/21 Q1015
MUHA 041250Z VRB02KT 9999 FEW030 20/18 Q1015
MUHA 041150Z 23002KT 9999 FEW030 16/16 Q1015
MUHA 041050Z VRB01KT 9000 FEW030 16/15 Q1014
MUHA 040950Z VRB02KT 9000 FEW030 16/16 Q1013
MUHA 040850Z VRB01KT 9000 FEW030 16/16 Q1013
MUHA 040750Z VRB02KT 9000 FEW030 17/16 Q1014
MUHA 040650Z 24002KT 9000 FEW030 17/16 Q1014
MUHA 040550Z 20002KT 9000 FEW030 17/17 Q1015
MUHA 040450Z 19002KT 9000 FEW030 18/17 Q1015
MUHA 040350Z 23002KT 9000 FEW030 18/17 Q1015
MUHA 040250Z 21002KT 9000 FEW030 19/18 Q1015
MUHA 040150Z VRB01KT 9000 FEW030 19/18 Q1015
MUHA 040050Z VRB02KT 9000 FEW030 21/18 Q1015
MUHA 032350Z 34004KT 9000 FEW030 25/17 Q1014
MUHA 032250Z 35006KT 9000 FEW030 26/17 Q1013
MUHA 032150Z 33008G18KT 9000 FEW030 27/17 Q1013
MUHA 032050Z 33009KT 9000 SCT030 28/17 Q1013
MUHA 031950Z 35007KT 280V360 9000 SCT030 29/18 Q1014